createdAt,value
2017-09-24T00:00:03.705Z,10.70
2017-09-24T00:05:31.864Z,10.70
2017-09-24T00:11:00.020Z,10.70
2017-09-24T00:16:28.166Z,10.70
2017-09-24T00:21:56.312Z,10.70
2017-09-24T00:27:24.466Z,10.70
2017-09-24T00:32:52.648Z,10.60
2017-09-24T00:38:20.806Z,10.60
2017-09-24T00:43:48.966Z,10.60
2017-09-24T00:49:17.130Z,10.60
2017-09-24T00:54:45.271Z,10.50
2017-09-24T01:00:13.411Z,10.50
2017-09-24T01:05:41.651Z,10.60
2017-09-24T01:11:09.895Z,10.60
2017-09-24T01:16:38.821Z,10.60
2017-09-24T01:22:07.128Z,10.50
2017-09-24T01:27:35.385Z,10.50
2017-09-24T01:33:03.608Z,10.50
2017-09-24T01:38:31.761Z,10.40
2017-09-24T01:43:59.906Z,10.40
2017-09-24T01:49:28.059Z,10.40
2017-09-24T01:54:56.203Z,10.30
2017-09-24T02:00:24.359Z,10.30
2017-09-24T02:05:53.308Z,10.20
2017-09-24T02:11:22.235Z,10.20
2017-09-24T02:16:50.370Z,10.20
2017-09-24T02:22:19.274Z,10.10
2017-09-24T02:27:47.427Z,10.10
2017-09-24T02:33:15.570Z,10.10
2017-09-24T02:38:43.706Z,10.10
2017-09-24T02:44:11.853Z,10.10
2017-09-24T02:49:40.759Z,10.10
2017-09-24T02:55:08.999Z,10.10
2017-09-24T03:00:37.152Z,10.10
2017-09-24T03:06:05.285Z,10.10
2017-09-24T03:11:34.204Z,10.10
2017-09-24T03:17:02.360Z,10.20
2017-09-24T03:22:30.499Z,10.20
2017-09-24T03:27:58.634Z,10.20
2017-09-24T03:33:27.557Z,10.20
2017-09-24T03:38:55.695Z,10.10
2017-09-24T03:44:23.836Z,10.10
2017-09-24T03:49:52.749Z,10.10
2017-09-24T03:55:20.878Z,10.10
2017-09-24T04:00:49.087Z,10.00
2017-09-24T04:06:17.241Z,10.00
2017-09-24T04:11:45.383Z,9.90
2017-09-24T04:17:13.556Z,9.90
2017-09-24T04:22:41.699Z,9.80
2017-09-24T04:28:09.841Z,9.80
2017-09-24T04:33:37.984Z,9.70
2017-09-24T04:39:06.886Z,9.70
2017-09-24T04:44:35.018Z,9.70
2017-09-24T04:50:03.174Z,9.70
2017-09-24T04:55:31.419Z,9.60
2017-09-24T05:01:00.364Z,9.60
2017-09-24T05:06:28.519Z,9.60
2017-09-24T05:11:56.661Z,9.60
2017-09-24T05:17:24.804Z,9.60
2017-09-24T05:22:52.935Z,9.60
2017-09-24T05:28:21.847Z,9.60
2017-09-24T05:33:49.987Z,9.60
2017-09-24T05:39:18.119Z,9.60
2017-09-24T05:44:47.048Z,9.70
2017-09-24T05:50:15.201Z,9.70
2017-09-24T05:55:44.301Z,9.80
2017-09-24T06:01:12.468Z,9.80
2017-09-24T06:06:40.620Z,9.90
2017-09-24T06:12:08.766Z,10.00
2017-09-24T06:17:36.898Z,10.00
2017-09-24T06:23:05.053Z,10.10
2017-09-24T06:28:33.232Z,10.20
2017-09-24T06:34:05.823Z,10.40
2017-09-24T06:39:33.993Z,10.60
2017-09-24T06:45:02.919Z,11.10
2017-09-24T06:50:31.085Z,11.10
2017-09-24T06:55:59.256Z,11.40
2017-09-24T07:01:27.425Z,11.70
2017-09-24T07:06:55.585Z,12.00
2017-09-24T07:12:23.735Z,12.30
2017-09-24T07:17:51.926Z,12.60
2017-09-24T07:23:21.079Z,13.00
2017-09-24T07:28:49.259Z,13.30
2017-09-24T07:34:18.211Z,13.80
2017-09-24T07:39:46.384Z,13.70
2017-09-24T07:45:14.546Z,14.00
2017-09-24T07:50:42.699Z,14.20
2017-09-24T07:56:10.848Z,14.40
2017-09-24T08:01:38.988Z,14.60
2017-09-24T08:07:07.154Z,14.90
2017-09-24T08:12:35.302Z,15.10
2017-09-24T08:18:03.539Z,15.30
2017-09-24T08:23:31.703Z,15.60
2017-09-24T08:28:59.858Z,15.80
2017-09-24T08:34:29.174Z,15.90
2017-09-24T08:39:59.432Z,16.10
2017-09-24T08:45:27.680Z,16.30
2017-09-24T08:50:56.064Z,16.40
2017-09-24T08:56:24.459Z,16.50
2017-09-24T09:01:52.746Z,16.60
2017-09-24T09:07:21.146Z,16.80
2017-09-24T09:12:49.306Z,16.90
2017-09-24T09:18:20.834Z,17.00
2017-09-24T09:23:51.250Z,17.10
2017-09-24T09:29:19.514Z,17.30
2017-09-24T09:35:05.703Z,17.50
2017-09-24T09:40:33.934Z,17.60
2017-09-24T09:46:05.928Z,17.70
2017-09-24T09:51:34.105Z,18.00
2017-09-24T09:57:02.251Z,18.20
2017-09-24T10:02:30.454Z,18.40
2017-09-24T10:14:17.254Z,17.90
2017-09-24T10:19:45.416Z,17.80
2017-09-24T10:25:13.563Z,17.70
2017-09-24T10:30:58.277Z,18.20
2017-09-24T10:36:26.462Z,18.10
2017-09-24T10:41:55.366Z,18.90
2017-09-24T10:47:23.524Z,18.90
2017-09-24T10:52:51.694Z,19.20
2017-09-24T10:58:19.868Z,19.30
2017-09-24T11:03:48.027Z,19.20
2017-09-24T11:09:16.207Z,19.00
2017-09-24T11:14:44.351Z,18.90
2017-09-24T11:20:12.530Z,19.10
2017-09-24T11:25:40.706Z,19.50
2017-09-24T11:31:09.662Z,19.80
2017-09-24T11:36:39.602Z,19.90
2017-09-24T11:42:07.903Z,19.80
2017-09-24T11:47:37.143Z,20.10
2017-09-24T11:53:05.314Z,20.20
2017-09-24T11:58:33.522Z,19.60
2017-09-24T12:04:01.944Z,19.70
2017-09-24T12:09:30.107Z,19.50
2017-09-24T12:14:58.261Z,19.30
2017-09-24T12:20:26.437Z,19.50
2017-09-24T12:25:54.609Z,19.70
2017-09-24T12:31:22.763Z,19.60
2017-09-24T12:36:50.949Z,19.80
2017-09-24T12:42:21.126Z,20.20
2017-09-24T12:47:49.266Z,20.10
2017-09-24T12:53:17.527Z,20.50
2017-09-24T12:58:45.687Z,21.10
2017-09-24T13:04:13.916Z,20.10
2017-09-24T13:09:49.663Z,19.60
2017-09-24T13:15:17.860Z,19.40
2017-09-24T13:20:46.007Z,20.10
2017-09-24T13:26:14.164Z,20.80
2017-09-24T13:31:42.314Z,21.50
2017-09-24T13:37:10.461Z,22.30
2017-09-24T13:42:38.624Z,22.90
2017-09-24T13:48:06.792Z,22.80
2017-09-24T13:53:34.944Z,21.70
2017-09-24T13:59:03.108Z,20.80
2017-09-24T14:04:31.248Z,20.00
2017-09-24T14:09:59.407Z,19.40
2017-09-24T14:15:27.574Z,19.00
2017-09-24T14:20:55.735Z,18.70
2017-09-24T14:26:23.893Z,18.40
2017-09-24T14:31:52.044Z,18.20
2017-09-24T14:37:20.192Z,18.00
2017-09-24T14:42:48.452Z,17.90
2017-09-24T14:48:16.605Z,17.80
2017-09-24T14:53:44.784Z,17.80
2017-09-24T14:59:13.108Z,17.70
2017-09-24T15:04:41.351Z,17.50
2017-09-24T15:10:12.253Z,17.10
2017-09-24T15:15:40.409Z,17.10
2017-09-24T15:21:08.554Z,16.90
2017-09-24T15:26:36.839Z,16.80
2017-09-24T15:32:05.736Z,16.70
2017-09-24T15:37:33.910Z,16.60
2017-09-24T15:43:02.128Z,16.50
2017-09-24T15:48:30.288Z,16.40
2017-09-24T15:53:58.446Z,16.40
2017-09-24T15:59:27.373Z,16.20
2017-09-24T16:04:55.588Z,16.10
2017-09-24T16:10:24.016Z,16.10
2017-09-24T16:15:52.221Z,16.00
2017-09-24T16:21:20.470Z,16.00
2017-09-24T16:26:49.401Z,15.90
2017-09-24T16:32:18.800Z,15.80
2017-09-24T16:37:47.045Z,15.70
2017-09-24T16:43:15.235Z,15.60
2017-09-24T16:48:43.640Z,15.50
2017-09-24T16:54:11.810Z,15.40
2017-09-24T16:59:39.978Z,15.30
2017-09-24T17:05:08.187Z,15.20
2017-09-24T17:10:37.106Z,15.00
2017-09-24T17:16:05.263Z,14.90
2017-09-24T17:21:33.433Z,14.80
2017-09-24T17:27:01.606Z,14.70
2017-09-24T17:32:29.770Z,14.70
2017-09-24T17:37:57.915Z,14.60
2017-09-24T17:43:26.092Z,14.50
2017-09-24T17:48:54.248Z,14.40
2017-09-24T17:54:22.423Z,14.40
2017-09-24T17:59:51.392Z,14.20
2017-09-24T18:05:19.561Z,14.10
2017-09-24T18:10:47.737Z,14.10
2017-09-24T18:16:15.900Z,14.00
2017-09-24T18:21:44.054Z,13.90
2017-09-24T18:27:12.381Z,13.70
2017-09-24T18:32:40.537Z,13.60
2017-09-24T18:38:09.627Z,13.50
2017-09-24T18:43:37.771Z,13.50
2017-09-24T18:49:05.960Z,13.40
2017-09-24T18:54:34.123Z,13.40
2017-09-24T19:00:03.166Z,13.30
2017-09-24T19:05:31.335Z,13.30
2017-09-24T19:10:59.500Z,13.20
2017-09-24T19:16:28.412Z,13.10
2017-09-24T19:21:56.568Z,13.10
2017-09-24T19:27:24.722Z,13.10
2017-09-24T19:32:52.889Z,13.00
2017-09-24T19:38:21.055Z,12.90
2017-09-24T19:43:49.217Z,12.80
2017-09-24T19:49:17.393Z,12.70
2017-09-24T19:54:45.553Z,12.70
2017-09-24T20:00:13.716Z,12.60
2017-09-24T20:05:41.882Z,12.60
2017-09-24T20:11:10.053Z,12.50
2017-09-24T20:16:39.891Z,12.40
2017-09-24T20:22:08.055Z,12.40
2017-09-24T20:27:36.222Z,12.30
2017-09-24T20:33:04.381Z,12.30
2017-09-24T20:38:32.549Z,12.20
2017-09-24T20:44:00.695Z,12.20
2017-09-24T20:49:28.836Z,12.20
2017-09-24T20:54:56.979Z,12.10
2017-09-24T21:00:26.133Z,12.10
2017-09-24T21:05:55.056Z,11.90
2017-09-24T21:11:23.238Z,11.90
2017-09-24T21:16:51.392Z,11.90
2017-09-24T21:22:19.546Z,11.80
2017-09-24T21:27:47.759Z,11.80
2017-09-24T21:33:16.680Z,11.70
2017-09-24T21:38:44.852Z,11.70
2017-09-24T21:44:13.016Z,11.70
2017-09-24T21:49:41.178Z,11.60
2017-09-24T21:55:09.565Z,11.60
2017-09-24T22:00:37.763Z,11.50
2017-09-24T22:06:05.998Z,11.50
2017-09-24T22:11:34.187Z,11.40
2017-09-24T22:17:02.474Z,11.40
2017-09-24T22:22:30.713Z,11.30
2017-09-24T22:27:58.968Z,11.20
2017-09-24T22:33:27.144Z,11.20
2017-09-24T22:38:55.936Z,11.10
2017-09-24T22:44:26.042Z,11.00
2017-09-24T22:49:54.333Z,10.90
2017-09-24T22:55:22.598Z,10.80
2017-09-24T23:00:50.786Z,10.80
2017-09-24T23:06:18.988Z,10.70
2017-09-24T23:11:47.919Z,10.60
2017-09-24T23:17:16.074Z,10.60
2017-09-24T23:22:44.217Z,10.50
2017-09-24T23:28:12.459Z,10.40
2017-09-24T23:33:41.366Z,10.20
2017-09-24T23:39:09.526Z,10.20
2017-09-24T23:44:37.658Z,10.20
2017-09-24T23:50:05.805Z,10.20
2017-09-24T23:55:34.717Z,10.00
